createdAt,value
2019-06-26T04:00:37.313Z,7.05
2019-06-26T04:03:07.662Z,7.10
2019-06-26T04:05:38.548Z,7.00
2019-06-26T04:08:09.405Z,6.67
2019-06-26T04:10:43.055Z,7.72
2019-06-26T04:13:12.754Z,7.10
2019-06-26T04:15:43.189Z,7.33
2019-06-26T04:18:13.457Z,7.08
2019-06-26T04:20:43.774Z,7.53
2019-06-26T04:23:14.049Z,6.75
2019-06-26T04:25:44.330Z,7.12
2019-06-26T04:28:14.654Z,7.25
2019-06-26T04:30:44.945Z,6.90
2019-06-26T04:33:15.318Z,6.83
2019-06-26T04:35:45.692Z,7.10
2019-06-26T04:38:15.997Z,7.10
2019-06-26T04:40:46.343Z,6.67
2019-06-26T04:43:16.637Z,6.85
2019-06-26T04:45:57.582Z,6.70
2019-06-26T04:48:18.937Z,6.78
2019-06-26T04:50:49.263Z,6.90
2019-06-26T04:53:19.614Z,6.83
2019-06-26T04:55:50.542Z,7.12
2019-06-26T04:58:20.890Z,7.05
2019-06-26T05:00:51.329Z,6.53
2019-06-26T05:03:22.360Z,7.00
2019-06-26T05:05:52.801Z,7.05
2019-06-26T05:08:23.121Z,6.45
2019-06-26T05:10:53.490Z,7.12
2019-06-26T05:13:23.839Z,6.60
2019-06-26T05:15:54.281Z,6.47
2019-06-26T05:18:25.848Z,6.97
2019-06-26T05:20:58.335Z,7.15
2019-06-26T05:23:28.715Z,6.90
2019-06-26T05:25:59.384Z,7.20
2019-06-26T05:28:29.708Z,6.87
2019-06-26T05:31:00.010Z,7.12
2019-06-26T05:33:31.410Z,6.90
2019-06-26T05:36:01.713Z,7.50
2019-06-26T05:38:32.073Z,6.72
2019-06-26T05:41:02.400Z,7.65
2019-06-26T05:43:32.867Z,6.45
2019-06-26T05:46:03.178Z,6.80
2019-06-26T05:48:33.533Z,6.62
2019-06-26T05:51:03.863Z,7.00
2019-06-26T05:53:34.209Z,6.78
2019-06-26T05:56:05.056Z,6.28
2019-06-26T05:58:35.403Z,6.78
2019-06-26T06:01:05.727Z,6.75
2019-06-26T06:03:36.115Z,6.97
2019-06-26T06:06:08.234Z,6.85
2019-06-26T06:08:38.629Z,6.92
2019-06-26T06:11:08.940Z,6.55
2019-06-26T06:13:39.221Z,6.58
2019-06-26T06:16:09.469Z,6.67
2019-06-26T06:18:39.745Z,6.72
2019-06-26T06:21:09.990Z,7.03
2019-06-26T06:23:40.265Z,6.55
2019-06-26T06:26:16.381Z,6.42
2019-06-26T06:28:47.064Z,6.80
2019-06-26T06:31:19.611Z,6.75
2019-06-26T06:33:50.421Z,6.78
2019-06-26T06:36:22.110Z,6.50
2019-06-26T06:38:52.384Z,6.50
2019-06-26T06:41:22.656Z,6.78
2019-06-26T06:43:52.927Z,6.95
2019-06-26T06:46:23.253Z,7.08
2019-06-26T06:48:53.527Z,6.80
2019-06-26T06:51:23.778Z,6.60
2019-06-26T06:53:54.060Z,6.72
2019-06-26T06:56:24.328Z,7.20
2019-06-26T06:58:54.642Z,7.10
2019-06-26T07:01:24.905Z,8.10
2019-06-26T07:03:55.186Z,7.50
2019-06-26T07:06:25.441Z,7.60
2019-06-26T07:08:55.734Z,7.70
2019-06-26T07:11:26.005Z,8.03
2019-06-26T07:13:56.337Z,8.05
2019-06-26T07:16:26.757Z,7.92
2019-06-26T07:18:57.530Z,7.67
2019-06-26T07:21:27.773Z,7.47
2019-06-26T07:23:58.093Z,8.00
2019-06-26T07:26:28.373Z,8.80
2019-06-26T07:28:58.633Z,7.78
2019-06-26T07:31:28.911Z,7.50
2019-06-26T07:33:59.199Z,7.78
2019-06-26T07:36:29.538Z,7.55
2019-06-26T07:38:59.940Z,8.00
2019-06-26T07:41:31.293Z,8.85
2019-06-26T07:44:01.641Z,9.75
2019-06-26T07:46:31.906Z,8.13
2019-06-26T07:49:02.169Z,8.13
2019-06-26T07:51:32.451Z,8.48
2019-06-26T07:54:02.810Z,8.45
2019-06-26T07:56:33.105Z,8.03
2019-06-26T07:59:03.379Z,8.58
2019-06-26T08:01:33.658Z,8.58
2019-06-26T08:04:03.927Z,8.80
2019-06-26T08:06:34.201Z,8.50
2019-06-26T08:09:05.244Z,8.38
2019-06-26T08:11:35.544Z,8.75
2019-06-26T08:14:06.934Z,9.03
2019-06-26T08:16:37.156Z,8.95
2019-06-26T08:19:08.499Z,8.35
2019-06-26T08:21:38.790Z,8.98
2019-06-26T08:24:09.119Z,9.33
2019-06-26T08:26:39.401Z,9.13
2019-06-26T08:29:09.641Z,8.78
2019-06-26T08:31:39.918Z,8.53
2019-06-26T08:34:10.169Z,8.95
2019-06-26T08:36:40.441Z,8.45
2019-06-26T08:39:10.725Z,8.85
2019-06-26T08:41:41.070Z,8.70
2019-06-26T08:44:11.318Z,8.20
2019-06-26T08:46:41.650Z,8.70
2019-06-26T08:49:24.827Z,8.60
2019-06-26T08:51:43.963Z,8.70
2019-06-26T08:54:14.234Z,9.03
2019-06-26T08:56:44.530Z,8.98
2019-06-26T08:59:14.808Z,8.93
2019-06-26T09:01:45.285Z,8.75
2019-06-26T09:04:16.830Z,8.78
2019-06-26T09:06:47.135Z,9.20
2019-06-26T09:09:17.447Z,8.15
2019-06-26T09:11:47.745Z,9.08
2019-06-26T09:14:18.069Z,7.97
2019-06-26T09:16:48.396Z,9.43
2019-06-26T09:19:18.643Z,9.00
2019-06-26T09:21:48.997Z,9.33
2019-06-26T09:24:19.525Z,9.63
2019-06-26T09:26:50.882Z,9.03
2019-06-26T09:29:23.760Z,9.55
2019-06-26T09:31:53.070Z,9.80
2019-06-26T09:34:23.321Z,8.78
2019-06-26T09:36:54.441Z,8.95
2019-06-26T09:39:24.665Z,8.38
2019-06-26T09:41:54.957Z,9.28
2019-06-26T09:44:26.114Z,8.68
2019-06-26T09:46:56.518Z,9.15
2019-06-26T09:49:26.782Z,8.90
2019-06-26T09:51:57.656Z,8.55
2019-06-26T09:54:27.975Z,8.65
2019-06-26T09:56:58.222Z,8.93
2019-06-26T09:59:28.497Z,9.25
2019-06-26T10:01:58.779Z,8.95
2019-06-26T10:04:29.048Z,9.10
2019-06-26T10:06:59.338Z,9.08
2019-06-26T10:09:29.693Z,9.18
2019-06-26T10:11:59.972Z,9.35
2019-06-26T10:14:46.680Z,8.30
2019-06-26T10:17:02.322Z,8.75
2019-06-26T10:19:32.638Z,8.53
2019-06-26T10:22:03.009Z,8.88
2019-06-26T10:24:33.376Z,7.30
2019-06-26T10:27:03.691Z,7.33
2019-06-26T10:29:34.566Z,7.85
2019-06-26T10:32:04.852Z,8.38
2019-06-26T10:34:36.093Z,8.95
2019-06-26T10:37:06.366Z,8.80
2019-06-26T10:39:36.622Z,8.08
2019-06-26T10:42:06.931Z,7.30
2019-06-26T10:44:38.266Z,7.85
2019-06-26T10:47:08.558Z,7.62
2019-06-26T10:49:38.822Z,8.10
2019-06-26T10:52:09.089Z,7.47
2019-06-26T10:54:39.340Z,7.30
2019-06-26T10:57:09.588Z,7.78
2019-06-26T10:59:39.914Z,7.90
2019-06-26T11:02:10.430Z,7.50
2019-06-26T11:04:40.698Z,7.58
2019-06-26T11:07:10.949Z,6.87
2019-06-26T11:09:41.232Z,7.58
2019-06-26T11:12:11.498Z,6.90
2019-06-26T11:14:41.767Z,7.00
2019-06-26T11:17:12.007Z,7.05
2019-06-26T11:19:44.149Z,6.65
2019-06-26T11:22:14.134Z,6.75
2019-06-26T11:24:44.427Z,6.70
2019-06-26T11:27:14.670Z,6.35
2019-06-26T11:29:45.922Z,6.50
2019-06-26T11:32:16.177Z,6.47
2019-06-26T11:34:46.484Z,6.28
2019-06-26T11:37:16.744Z,6.28
2019-06-26T11:39:47.038Z,6.67
2019-06-26T11:42:17.294Z,7.05
2019-06-26T11:44:47.625Z,7.03
2019-06-26T11:47:17.892Z,7.10
2019-06-26T11:49:59.486Z,7.17
2019-06-26T11:52:20.033Z,7.17
2019-06-26T11:55:02.183Z,7.00
2019-06-26T11:57:23.312Z,6.65
2019-06-26T11:59:53.614Z,6.75
2019-06-26T12:02:23.825Z,7.08
2019-06-26T12:04:54.098Z,6.90
2019-06-26T12:07:24.796Z,6.58
2019-06-26T12:09:55.148Z,7.10
2019-06-26T12:12:26.728Z,7.72
2019-06-26T12:14:57.129Z,7.20
2019-06-26T12:17:29.838Z,7.10
2019-06-26T12:20:13.614Z,6.53
2019-06-26T12:22:34.205Z,6.83
2019-06-26T12:25:06.035Z,7.17
2019-06-26T12:27:36.602Z,6.97
2019-06-26T12:30:08.687Z,6.80
2019-06-26T12:32:42.406Z,6.87
2019-06-26T12:35:11.603Z,6.70
2019-06-26T12:37:42.014Z,6.53
2019-06-26T12:40:12.669Z,6.60
2019-06-26T12:42:43.067Z,6.60
2019-06-26T12:45:13.547Z,6.80
2019-06-26T12:47:43.799Z,5.85
2019-06-26T12:50:33.768Z,6.50
2019-06-26T12:52:48.938Z,6.90
2019-06-26T12:55:19.218Z,6.90
2019-06-26T12:57:49.487Z,6.65
2019-06-26T13:00:19.967Z,6.92
2019-06-26T13:02:50.246Z,6.28
2019-06-26T13:05:20.521Z,6.70
2019-06-26T13:07:50.778Z,6.85
2019-06-26T13:10:21.482Z,6.67
2019-06-26T13:12:51.730Z,6.92
2019-06-26T13:15:22.116Z,6.75
2019-06-26T13:17:52.385Z,6.50
2019-06-26T13:20:22.686Z,6.40
2019-06-26T13:22:52.927Z,6.53
2019-06-26T13:25:23.336Z,6.58
2019-06-26T13:27:53.722Z,7.20
2019-06-26T13:30:33.876Z,6.40
2019-06-26T13:33:04.122Z,6.65
2019-06-26T13:35:46.449Z,6.53
2019-06-26T13:38:16.697Z,5.85
2019-06-26T13:40:47.025Z,6.97
2019-06-26T13:43:17.870Z,7.00
2019-06-26T13:45:49.681Z,6.85
2019-06-26T13:48:19.957Z,6.03
2019-06-26T13:50:50.523Z,6.50
2019-06-26T13:53:20.802Z,6.72
2019-06-26T13:55:51.094Z,6.90
2019-06-26T13:58:21.416Z,6.40
2019-06-26T14:00:51.739Z,6.53
2019-06-26T14:03:21.990Z,6.58
2019-06-26T14:05:52.538Z,6.50
2019-06-26T14:08:23.009Z,6.72
2019-06-26T14:10:53.354Z,6.75
2019-06-26T14:13:23.740Z,6.37
2019-06-26T14:15:54.869Z,6.60
2019-06-26T14:18:30.182Z,6.95
2019-06-26T14:20:58.929Z,6.42
2019-06-26T14:23:29.269Z,6.62
2019-06-26T14:25:59.534Z,6.35
2019-06-26T14:28:30.440Z,6.70
2019-06-26T14:31:00.881Z,6.50
2019-06-26T14:33:31.265Z,6.33
2019-06-26T14:36:01.549Z,6.45
2019-06-26T14:38:31.789Z,6.33
2019-06-26T14:41:02.080Z,6.85
2019-06-26T14:43:32.394Z,6.65
2019-06-26T14:46:02.764Z,6.42
2019-06-26T14:48:33.247Z,6.53
2019-06-26T14:51:03.627Z,6.45
2019-06-26T14:53:34.729Z,7.05
2019-06-26T14:56:05.253Z,7.37
2019-06-26T14:58:36.629Z,7.22
2019-06-26T15:01:07.081Z,7.45
2019-06-26T15:03:37.366Z,7.70
2019-06-26T15:06:16.255Z,7.42
2019-06-26T15:08:39.645Z,7.60
2019-06-26T15:11:09.945Z,7.55
2019-06-26T15:13:40.334Z,7.53
2019-06-26T15:16:10.654Z,7.83
2019-06-26T15:18:40.990Z,7.35
2019-06-26T15:21:11.236Z,8.53
2019-06-26T15:23:41.642Z,7.20
2019-06-26T15:26:11.930Z,7.53
2019-06-26T15:28:42.365Z,7.60
2019-06-26T15:31:12.765Z,7.62
2019-06-26T15:33:43.237Z,8.58
2019-06-26T15:36:13.976Z,8.03
2019-06-26T15:38:44.291Z,7.58
2019-06-26T15:41:14.633Z,7.83
2019-06-26T15:43:44.954Z,8.73
2019-06-26T15:46:15.282Z,8.18
2019-06-26T15:48:45.600Z,8.00
2019-06-26T15:51:15.890Z,8.98
2019-06-26T15:53:46.153Z,9.33
2019-06-26T15:56:17.842Z,8.68
2019-06-26T15:58:48.172Z,9.30
2019-06-26T16:01:19.437Z,9.43
2019-06-26T16:03:53.973Z,10.63
2019-06-26T16:06:26.216Z,8.88
2019-06-26T16:08:58.600Z,8.88
2019-06-26T16:11:29.751Z,9.75
2019-06-26T16:14:01.570Z,9.80
2019-06-26T16:16:35.233Z,9.30
2019-06-26T16:19:10.552Z,9.40
2019-06-26T16:21:41.025Z,9.33
2019-06-26T16:24:11.329Z,10.00
2019-06-26T16:26:41.647Z,10.30
2019-06-26T16:29:11.919Z,10.25
2019-06-26T16:31:42.188Z,9.65
2019-06-26T16:34:12.457Z,9.75
2019-06-26T16:36:42.836Z,9.88
2019-06-26T16:39:13.098Z,10.18
2019-06-26T16:41:43.422Z,9.93
2019-06-26T16:44:13.733Z,10.15
2019-06-26T16:46:44.008Z,10.00
2019-06-26T16:49:14.297Z,9.85
2019-06-26T16:51:44.690Z,10.75
2019-06-26T16:54:15.010Z,10.45
2019-06-26T16:56:45.304Z,10.70
2019-06-26T16:59:15.584Z,10.25
2019-06-26T17:01:46.000Z,9.50
2019-06-26T17:04:16.277Z,10.72
2019-06-26T17:06:46.551Z,10.30
2019-06-26T17:09:16.837Z,10.18
2019-06-26T17:11:47.133Z,10.03
2019-06-26T17:14:17.419Z,10.20
2019-06-26T17:16:47.725Z,10.48
2019-06-26T17:19:18.267Z,10.28
2019-06-26T17:21:48.806Z,11.22
2019-06-26T17:24:19.408Z,10.40
2019-06-26T17:26:49.760Z,9.90
2019-06-26T17:29:20.057Z,10.18
2019-06-26T17:31:50.598Z,10.30
2019-06-26T17:34:21.946Z,10.40
2019-06-26T17:36:52.362Z,10.72
2019-06-26T17:39:23.731Z,10.70
2019-06-26T17:41:54.278Z,11.20
2019-06-26T17:44:25.172Z,10.98
2019-06-26T17:46:55.433Z,11.35
2019-06-26T17:49:25.735Z,11.25
2019-06-26T17:51:56.006Z,11.35
2019-06-26T17:54:26.362Z,11.80
2019-06-26T17:56:56.625Z,11.53
2019-06-26T17:59:27.002Z,11.97
2019-06-26T18:01:57.286Z,12.20
2019-06-26T18:04:29.482Z,11.90
2019-06-26T18:06:59.741Z,12.40
2019-06-26T18:09:35.506Z,13.00
2019-06-26T18:12:05.800Z,12.13
2019-06-26T18:14:37.157Z,12.80
2019-06-26T18:17:21.095Z,12.20
2019-06-26T18:19:39.418Z,13.30
2019-06-26T18:22:09.684Z,12.30
2019-06-26T18:24:39.950Z,12.10
2019-06-26T18:27:10.225Z,12.15
2019-06-26T18:29:40.566Z,12.15
2019-06-26T18:32:10.885Z,12.98
2019-06-26T18:34:41.165Z,12.75
2019-06-26T18:37:11.441Z,12.82
2019-06-26T18:39:41.796Z,12.03
2019-06-26T18:42:12.084Z,12.33
2019-06-26T18:44:42.373Z,12.70
2019-06-26T18:47:13.825Z,11.73
2019-06-26T18:49:44.116Z,12.60
2019-06-26T18:52:14.401Z,12.58
2019-06-26T18:54:44.704Z,11.93
2019-06-26T18:57:14.991Z,12.03
2019-06-26T18:59:45.254Z,12.13
2019-06-26T19:02:15.564Z,11.70
2019-06-26T19:04:45.816Z,13.48
2019-06-26T19:07:16.221Z,11.80
2019-06-26T19:09:46.541Z,11.83
2019-06-26T19:12:16.826Z,11.85
2019-06-26T19:14:47.161Z,11.05
2019-06-26T19:17:17.499Z,14.35
2019-06-26T19:19:48.882Z,15.63
2019-06-26T19:22:19.168Z,11.95
2019-06-26T19:24:49.431Z,10.95
2019-06-26T19:27:19.849Z,10.40
2019-06-26T19:29:53.531Z,10.85
2019-06-26T19:32:23.891Z,10.65
2019-06-26T19:34:54.153Z,10.58
2019-06-26T19:37:24.505Z,10.10
2019-06-26T19:39:54.821Z,10.75
2019-06-26T19:42:25.133Z,11.40
2019-06-26T19:44:55.397Z,10.45
2019-06-26T19:47:25.667Z,10.25
2019-06-26T19:49:56.558Z,10.03
2019-06-26T19:52:26.812Z,10.00
2019-06-26T19:54:57.045Z,10.53
2019-06-26T19:57:27.308Z,10.68
2019-06-26T19:59:57.753Z,10.60
2019-06-26T20:02:28.045Z,10.68
2019-06-26T20:04:58.272Z,11.25
2019-06-26T20:07:29.625Z,10.95
2019-06-26T20:10:01.827Z,11.33
2019-06-26T20:12:31.831Z,11.10
2019-06-26T20:15:02.115Z,11.38
2019-06-26T20:17:32.350Z,11.25
2019-06-26T20:20:02.605Z,11.50
2019-06-26T20:22:33.957Z,11.75
2019-06-26T20:25:04.286Z,12.37
2019-06-26T20:27:34.568Z,12.13
2019-06-26T20:30:09.234Z,13.30
2019-06-26T20:32:37.425Z,12.07
2019-06-26T20:35:08.368Z,12.40
2019-06-26T20:37:39.719Z,12.95
2019-06-26T20:40:11.428Z,12.60
2019-06-26T20:42:42.114Z,12.13
2019-06-26T20:45:14.285Z,12.73
2019-06-26T20:47:46.209Z,14.15
2019-06-26T20:50:17.298Z,12.75
2019-06-26T20:52:47.605Z,12.50
2019-06-26T20:55:17.868Z,12.75
2019-06-26T20:57:48.129Z,12.68
2019-06-26T21:00:22.352Z,12.85
2019-06-26T21:02:53.989Z,12.73
2019-06-26T21:05:22.600Z,12.68
2019-06-26T21:07:52.962Z,13.00
2019-06-26T21:10:23.433Z,13.08
2019-06-26T21:12:53.849Z,12.35
2019-06-26T21:15:24.285Z,13.30
2019-06-26T21:17:54.637Z,12.68
2019-06-26T21:20:24.928Z,13.13
2019-06-26T21:22:56.310Z,12.43
2019-06-26T21:25:27.335Z,12.70
2019-06-26T21:27:57.784Z,12.30
2019-06-26T21:30:28.985Z,12.98
2019-06-26T21:32:59.897Z,12.18
2019-06-26T21:35:30.276Z,12.75
2019-06-26T21:38:00.561Z,11.95
2019-06-26T21:40:30.857Z,12.63
2019-06-26T21:43:01.176Z,12.30
2019-06-26T21:45:31.480Z,13.48
2019-06-26T21:48:01.745Z,12.58
2019-06-26T21:50:32.058Z,13.32
2019-06-26T21:53:02.344Z,13.25
